createdAt,value
2019-04-25T00:02:30.873Z,100159.20
2019-04-25T00:05:08.129Z,100171.72
2019-04-25T00:07:39.050Z,100175.86
2019-04-25T00:10:07.798Z,100160.22
2019-04-25T00:12:37.866Z,100175.67
2019-04-25T00:15:08.101Z,100172.37
2019-04-25T00:17:37.875Z,100176.98
2019-04-25T00:20:08.058Z,100177.42
2019-04-25T00:22:54.592Z,100186.72
2019-04-25T00:25:36.615Z,100180.05
2019-04-25T00:28:06.876Z,100185.21
2019-04-25T00:30:35.536Z,100190.73
2019-04-25T00:33:04.098Z,100178.45
2019-04-25T00:35:33.640Z,100171.02
2019-04-25T00:38:02.470Z,100176.11
2019-04-25T00:40:31.881Z,100203.05
2019-04-25T00:43:01.588Z,100202.42
2019-04-25T00:45:31.728Z,100201.81
2019-04-25T00:48:00.428Z,100197.03
2019-04-25T00:50:29.050Z,100189.64
2019-04-25T00:52:57.914Z,100191.98
2019-04-25T00:55:28.980Z,100201.01
2019-04-25T00:57:59.414Z,100191.31
2019-04-25T01:00:29.660Z,100187.19
2019-04-25T01:03:01.636Z,100198.80
2019-04-25T01:05:31.620Z,100189.83
2019-04-25T01:08:02.100Z,100197.80
2019-04-25T01:10:31.601Z,100207.56
2019-04-25T01:13:01.114Z,100210.84
2019-04-25T01:15:31.453Z,100206.48
2019-04-25T01:18:01.218Z,100201.62
2019-04-25T01:20:30.004Z,100212.49
2019-04-25T01:23:00.764Z,100221.07
2019-04-25T01:25:38.478Z,100218.81
2019-04-25T01:27:59.263Z,100224.45
2019-04-25T01:30:28.181Z,100225.88
2019-04-25T01:33:00.129Z,100224.09
2019-04-25T01:35:39.496Z,100223.55
2019-04-25T01:38:09.707Z,100221.41
2019-04-25T01:40:53.384Z,100224.43
2019-04-25T01:43:26.730Z,100225.92
2019-04-25T01:45:58.938Z,100213.13
2019-04-25T01:48:27.539Z,100213.59
2019-04-25T01:50:58.754Z,100207.83
2019-04-25T01:53:27.341Z,100208.66
2019-04-25T01:56:03.693Z,100215.02
2019-04-25T01:58:27.948Z,100216.86
2019-04-25T02:00:58.584Z,100217.91
2019-04-25T02:03:27.432Z,100218.09
2019-04-25T02:05:59.117Z,100217.91
2019-04-25T02:08:27.877Z,100216.91
2019-04-25T02:11:02.796Z,100217.73
2019-04-25T02:13:33.649Z,100220.80
2019-04-25T02:16:03.428Z,100218.80
2019-04-25T02:18:33.590Z,100236.28
2019-04-25T02:21:04.140Z,100239.63
2019-04-25T02:23:34.055Z,100254.30
2019-04-25T02:26:13.922Z,100261.39
2019-04-25T02:28:33.854Z,100263.36
2019-04-25T02:31:08.171Z,100280.48
2019-04-25T02:33:34.018Z,100291.34
2019-04-25T02:36:08.306Z,100292.06
2019-04-25T02:38:34.208Z,100291.78
2019-04-25T02:41:08.417Z,100284.95
2019-04-25T02:43:35.039Z,100296.36
2019-04-25T02:46:21.563Z,100297.67
2019-04-25T02:49:09.636Z,100296.36
2019-04-25T02:51:52.140Z,100299.70
2019-04-25T02:54:20.750Z,100298.48
2019-04-25T02:56:49.363Z,100299.63
2019-04-25T02:59:17.969Z,100305.78
2019-04-25T03:01:46.787Z,100304.76
2019-04-25T03:04:15.812Z,100312.61
2019-04-25T03:06:45.414Z,100320.39
2019-04-25T03:09:15.405Z,100321.77
2019-04-25T03:11:45.045Z,100319.92
2019-04-25T03:14:14.832Z,100328.87
2019-04-25T03:16:44.869Z,100327.19
2019-04-25T03:19:27.685Z,100327.38
2019-04-25T03:22:07.724Z,100321.20
2019-04-25T03:24:35.143Z,100330.07
2019-04-25T03:27:05.230Z,100323.12
2019-04-25T03:29:34.324Z,100327.78
2019-04-25T03:32:08.772Z,100340.21
2019-04-25T03:34:35.093Z,100347.23
2019-04-25T03:37:05.287Z,100360.98
2019-04-25T03:39:34.185Z,100373.79
2019-04-25T03:42:04.888Z,100363.57
2019-04-25T03:44:33.857Z,100376.00
2019-04-25T03:47:05.923Z,100380.95
2019-04-25T03:49:33.714Z,100389.76
2019-04-25T03:52:04.383Z,100399.04
2019-04-25T03:54:33.421Z,100403.59
2019-04-25T03:57:04.767Z,100409.48
2019-04-25T03:59:33.597Z,100407.98
2019-04-25T04:02:03.089Z,100409.52
2019-04-25T04:04:33.489Z,100423.81
2019-04-25T04:07:04.438Z,100432.91
2019-04-25T04:09:33.847Z,100443.27
2019-04-25T04:12:04.328Z,100455.27
2019-04-25T04:14:33.866Z,100456.57
2019-04-25T04:17:23.687Z,100463.30
2019-04-25T04:19:54.516Z,100468.16
2019-04-25T04:22:27.233Z,100473.20
2019-04-25T04:24:59.048Z,100470.47
2019-04-25T04:27:27.765Z,100471.11
2019-04-25T04:29:56.382Z,100476.98
2019-04-25T04:32:25.204Z,100474.17
2019-04-25T04:34:53.885Z,100479.47
2019-04-25T04:37:23.637Z,100484.09
2019-04-25T04:39:53.628Z,100489.69
2019-04-25T04:42:23.689Z,100490.36
2019-04-25T04:44:53.458Z,100493.70
2019-04-25T04:47:23.527Z,100492.83
2019-04-25T04:49:53.859Z,100496.91
2019-04-25T04:52:25.178Z,100507.42
2019-04-25T04:55:03.708Z,100507.47
2019-04-25T04:57:31.931Z,100501.17
2019-04-25T04:59:54.741Z,100505.56
2019-04-25T05:02:39.810Z,100511.30
2019-04-25T05:05:19.484Z,100511.20
2019-04-25T05:07:49.774Z,100517.77
2019-04-25T05:10:19.061Z,100529.16
2019-04-25T05:12:48.529Z,100539.98
2019-04-25T05:15:18.211Z,100543.67
2019-04-25T05:17:47.706Z,100549.84
2019-04-25T05:20:17.573Z,100544.70
2019-04-25T05:22:46.676Z,100551.89
2019-04-25T05:25:16.665Z,100554.38
2019-04-25T05:28:00.073Z,100560.16
2019-04-25T05:30:17.946Z,100565.66
2019-04-25T05:32:46.543Z,100578.45
2019-04-25T05:35:16.271Z,100579.37
2019-04-25T05:37:48.221Z,100573.44
2019-04-25T05:40:17.496Z,100587.65
2019-04-25T05:42:56.600Z,100589.17
2019-04-25T05:45:29.611Z,100591.53
2019-04-25T05:47:58.535Z,100589.66
2019-04-25T05:50:27.097Z,100593.05
2019-04-25T05:52:55.656Z,100597.91
2019-04-25T05:55:25.240Z,100600.09
2019-04-25T05:57:53.962Z,100600.05
2019-04-25T06:00:24.779Z,100598.18
2019-04-25T06:02:53.333Z,100608.20
2019-04-25T06:05:23.379Z,100611.95
2019-04-25T06:07:52.360Z,100612.14
2019-04-25T06:10:34.914Z,100614.75
2019-04-25T06:13:05.831Z,100616.91
2019-04-25T06:15:35.361Z,100617.19
2019-04-25T06:18:08.163Z,100623.63
2019-04-25T06:20:37.866Z,100628.18
2019-04-25T06:23:13.847Z,100630.32
2019-04-25T06:25:43.925Z,100630.13
2019-04-25T06:28:21.646Z,100634.84
2019-04-25T06:30:50.566Z,100634.28
2019-04-25T06:33:19.242Z,100638.91
2019-04-25T06:35:47.792Z,100651.58
2019-04-25T06:38:16.791Z,100643.56
2019-04-25T06:40:45.816Z,100653.48
2019-04-25T06:43:14.370Z,100654.52
2019-04-25T06:45:55.807Z,100654.60
2019-04-25T06:48:26.257Z,100656.73
2019-04-25T06:50:55.589Z,100660.08
2019-04-25T06:53:25.767Z,100661.46
2019-04-25T06:55:55.070Z,100661.06
2019-04-25T06:58:27.050Z,100662.12
2019-04-25T07:00:58.861Z,100654.43
2019-04-25T07:03:27.102Z,100663.83
2019-04-25T07:05:55.728Z,100660.14
2019-04-25T07:08:26.913Z,100666.88
2019-04-25T07:10:56.308Z,100669.02
2019-04-25T07:13:26.964Z,100665.02
2019-04-25T07:15:55.849Z,100671.03
2019-04-25T07:18:30.247Z,100669.80
2019-04-25T07:20:55.961Z,100670.14
2019-04-25T07:23:25.677Z,100682.89
2019-04-25T07:25:55.923Z,100684.96
2019-04-25T07:28:38.084Z,100675.17
2019-04-25T07:31:25.110Z,100682.29
2019-04-25T07:34:07.342Z,100684.42
2019-04-25T07:36:36.247Z,100686.65
2019-04-25T07:39:10.656Z,100699.05
2019-04-25T07:41:38.692Z,100697.48
2019-04-25T07:44:07.404Z,100703.58
2019-04-25T07:46:39.575Z,100704.40
2019-04-25T07:49:06.901Z,100703.75
2019-04-25T07:51:36.712Z,100701.23
2019-04-25T07:54:05.889Z,100700.22
2019-04-25T07:56:35.529Z,100706.29
2019-04-25T07:59:06.626Z,100713.80
2019-04-25T08:01:37.499Z,100709.19
2019-04-25T08:04:06.376Z,100703.02
2019-04-25T08:06:35.758Z,100709.13
2019-04-25T08:09:07.997Z,100713.86
2019-04-25T08:11:36.670Z,100713.45
2019-04-25T08:14:14.428Z,100703.48
2019-04-25T08:16:46.407Z,100709.31
2019-04-25T08:19:15.448Z,100707.52
2019-04-25T08:21:45.196Z,100704.95
2019-04-25T08:24:14.563Z,100709.62
2019-04-25T08:26:43.694Z,100705.69
2019-04-25T08:29:13.265Z,100706.34
2019-04-25T08:31:43.925Z,100708.36
2019-04-25T08:34:14.554Z,100716.06
2019-04-25T08:36:45.421Z,100715.33
2019-04-25T08:39:14.616Z,100721.22
2019-04-25T08:41:45.441Z,100723.48
2019-04-25T08:44:14.266Z,100729.52
2019-04-25T08:46:44.213Z,100733.91
2019-04-25T08:49:18.028Z,100730.30
2019-04-25T08:51:48.487Z,100730.43
2019-04-25T08:54:27.663Z,100732.11
2019-04-25T08:56:58.220Z,100734.75
2019-04-25T08:59:44.795Z,100743.37
2019-04-25T09:02:18.916Z,100750.44
2019-04-25T09:05:05.680Z,100749.16
2019-04-25T09:07:35.369Z,100754.69
2019-04-25T09:10:06.410Z,100749.37
2019-04-25T09:12:36.344Z,100755.92
2019-04-25T09:15:06.787Z,100759.38
2019-04-25T09:17:35.931Z,100756.55
2019-04-25T09:20:07.649Z,100753.71
2019-04-25T09:22:37.381Z,100746.24
2019-04-25T09:25:10.856Z,100746.55
2019-04-25T09:27:41.721Z,100747.88
2019-04-25T09:30:10.413Z,100754.03
2019-04-25T09:32:39.927Z,100743.63
2019-04-25T09:35:08.910Z,100745.58
2019-04-25T09:37:37.536Z,100744.24
2019-04-25T09:40:13.833Z,100736.75
2019-04-25T09:42:44.733Z,100726.69
2019-04-25T09:45:24.091Z,100735.97
2019-04-25T09:47:53.417Z,100731.56
2019-04-25T09:50:39.662Z,100727.42
2019-04-25T09:53:20.793Z,100719.39
2019-04-25T09:55:44.132Z,100726.21
2019-04-25T09:58:15.744Z,100731.85
2019-04-25T10:00:46.509Z,100736.44
2019-04-25T10:03:15.228Z,100734.14
2019-04-25T10:05:44.720Z,100727.86
2019-04-25T10:08:13.527Z,100726.03
2019-04-25T10:10:42.813Z,100721.80
2019-04-25T10:13:11.415Z,100721.63
2019-04-25T10:16:04.198Z,100717.03
2019-04-25T10:18:33.893Z,100726.36
2019-04-25T10:21:04.757Z,100719.23
2019-04-25T10:23:34.279Z,100717.48
2019-04-25T10:26:03.861Z,100712.16
2019-04-25T10:28:33.580Z,100710.50
2019-04-25T10:31:03.549Z,100710.35
2019-04-25T10:33:32.452Z,100712.17
2019-04-25T10:36:01.377Z,100712.73
2019-04-25T10:38:30.783Z,100713.19
2019-04-25T10:40:59.390Z,100716.02
2019-04-25T10:43:28.016Z,100710.14
2019-04-25T10:45:58.193Z,100700.66
2019-04-25T10:48:29.737Z,100706.38
2019-04-25T10:50:58.425Z,100703.67
2019-04-25T10:53:27.051Z,100700.23
2019-04-25T10:55:55.775Z,100704.11
2019-04-25T10:58:24.924Z,100691.77
2019-04-25T11:00:54.657Z,100694.25
2019-04-25T11:03:30.843Z,100696.71
2019-04-25T11:05:59.657Z,100690.20
2019-04-25T11:08:28.370Z,100691.03
2019-04-25T11:11:00.360Z,100680.84
2019-04-25T11:13:28.989Z,100675.33
2019-04-25T11:15:57.987Z,100666.48
2019-04-25T11:18:28.251Z,100666.05
2019-04-25T11:20:59.838Z,100667.45
2019-04-25T11:23:28.549Z,100667.04
2019-04-25T11:25:57.262Z,100666.59
2019-04-25T11:28:27.372Z,100665.92
2019-04-25T11:30:59.218Z,100668.63
2019-04-25T11:33:28.656Z,100662.38
2019-04-25T11:35:57.367Z,100656.70
2019-04-25T11:38:30.922Z,100646.52
2019-04-25T11:41:01.382Z,100643.38
2019-04-25T11:43:30.033Z,100640.36
2019-04-25T11:45:58.617Z,100639.64
2019-04-25T11:48:27.258Z,100644.55
2019-04-25T11:50:57.394Z,100638.98
2019-04-25T11:53:28.885Z,100642.61
2019-04-25T11:55:58.003Z,100639.36
2019-04-25T11:58:28.364Z,100642.06
2019-04-25T12:00:58.028Z,100633.91
2019-04-25T12:03:29.933Z,100641.72
2019-04-25T12:05:58.610Z,100639.86
2019-04-25T12:08:27.380Z,100640.15
2019-04-25T12:10:55.998Z,100635.33
2019-04-25T12:13:24.722Z,100635.33
2019-04-25T12:15:54.816Z,100633.39
2019-04-25T12:18:25.643Z,100630.08
2019-04-25T12:20:55.442Z,100632.18
2019-04-25T12:23:24.743Z,100628.75
2019-04-25T12:25:54.371Z,100625.09
2019-04-25T12:28:23.933Z,100625.73
2019-04-25T12:30:54.963Z,100623.25
2019-04-25T12:33:23.886Z,100616.67
2019-04-25T12:35:54.196Z,100620.67
2019-04-25T12:38:24.464Z,100619.86
2019-04-25T12:40:54.371Z,100619.52
2019-04-25T12:43:25.432Z,100608.48
2019-04-25T12:46:02.143Z,100606.31
2019-04-25T12:48:30.754Z,100603.86
2019-04-25T12:50:59.773Z,100608.55
2019-04-25T12:53:28.385Z,100605.70
2019-04-25T12:55:57.095Z,100602.72
2019-04-25T12:58:25.818Z,100604.23
2019-04-25T13:00:58.582Z,100602.03
2019-04-25T13:03:28.926Z,100602.34
2019-04-25T13:05:58.396Z,100602.07
2019-04-25T13:08:27.329Z,100598.07
2019-04-25T13:11:07.541Z,100587.72
2019-04-25T13:13:27.994Z,100585.41
2019-04-25T13:15:58.129Z,100588.69
2019-04-25T13:18:29.815Z,100584.52
2019-04-25T13:20:58.937Z,100577.23
2019-04-25T13:23:27.487Z,100579.36
2019-04-25T13:25:59.356Z,100576.53
2019-04-25T13:28:32.255Z,100576.86
2019-04-25T13:31:08.962Z,100574.88
2019-04-25T13:33:43.355Z,100578.55
2019-04-25T13:36:16.211Z,100573.14
2019-04-25T13:38:45.270Z,100577.48
2019-04-25T13:41:14.009Z,100574.41
2019-04-25T13:43:42.562Z,100576.54
2019-04-25T13:46:15.822Z,100574.66
2019-04-25T13:48:43.209Z,100571.59
2019-04-25T13:51:11.771Z,100569.63
2019-04-25T13:53:40.394Z,100569.11
2019-04-25T13:56:09.117Z,100563.33
2019-04-25T13:58:37.722Z,100557.62
2019-04-25T14:01:13.277Z,100559.63
2019-04-25T14:03:37.795Z,100557.93
2019-04-25T14:06:06.864Z,100558.07
2019-04-25T14:08:35.471Z,100554.23
2019-04-25T14:11:05.217Z,100549.89
2019-04-25T14:13:33.891Z,100548.92
2019-04-25T14:16:10.530Z,100550.41
2019-04-25T14:18:56.579Z,100556.39
2019-04-25T14:21:26.133Z,100550.84
2019-04-25T14:23:55.612Z,100548.67
2019-04-25T14:26:25.664Z,100548.45
2019-04-25T14:28:56.378Z,100548.94
2019-04-25T14:31:40.660Z,100547.05
2019-04-25T14:33:55.551Z,100538.84
2019-04-25T14:36:28.350Z,100541.64
2019-04-25T14:38:59.788Z,100538.25
2019-04-25T14:41:28.839Z,100538.91
2019-04-25T14:43:57.448Z,100533.73
2019-04-25T14:46:29.929Z,100534.50
2019-04-25T14:48:58.570Z,100527.94
2019-04-25T14:51:28.134Z,100526.75
2019-04-25T14:54:04.645Z,100523.66
2019-04-25T14:56:37.717Z,100532.47
2019-04-25T14:59:06.650Z,100529.36
2019-04-25T15:01:44.633Z,100527.59
2019-04-25T15:04:05.929Z,100521.81
2019-04-25T15:06:34.524Z,100529.35
2019-04-25T15:09:03.150Z,100524.34
2019-04-25T15:11:31.760Z,100523.32
2019-04-25T15:14:00.471Z,100523.06
2019-04-25T15:16:29.192Z,100519.19
2019-04-25T15:19:05.432Z,100508.69
2019-04-25T15:21:34.203Z,100512.08
2019-04-25T15:24:02.826Z,100514.44
2019-04-25T15:26:31.446Z,100509.14
2019-04-25T15:29:00.055Z,100515.00
2019-04-25T15:31:30.156Z,100513.05
2019-04-25T15:33:58.935Z,100508.39
2019-04-25T15:36:29.174Z,100510.54
2019-04-25T15:39:15.603Z,100500.98
2019-04-25T15:41:48.303Z,100504.66
2019-04-25T15:44:21.217Z,100501.67
2019-04-25T15:46:51.412Z,100496.39
2019-04-25T15:49:20.080Z,100498.58
2019-04-25T15:51:48.791Z,100496.92
2019-04-25T15:54:17.406Z,100494.85
2019-04-25T15:56:46.120Z,100494.98
2019-04-25T15:59:14.834Z,100493.34
2019-04-25T16:01:43.559Z,100491.03
2019-04-25T16:04:12.168Z,100488.28
2019-04-25T16:06:40.790Z,100491.26
2019-04-25T16:09:10.528Z,100490.27
2019-04-25T16:11:39.514Z,100484.06
2019-04-25T16:14:08.205Z,100482.78
2019-04-25T16:16:38.277Z,100482.86
2019-04-25T16:19:07.186Z,100482.83
2019-04-25T16:21:35.813Z,100470.98
2019-04-25T16:24:04.724Z,100474.77
2019-04-25T16:26:33.620Z,100471.23
2019-04-25T16:29:02.708Z,100466.66
2019-04-25T16:31:32.278Z,100469.98
2019-04-25T16:34:03.872Z,100468.27
2019-04-25T16:36:32.582Z,100468.29
2019-04-25T16:39:01.402Z,100467.13
2019-04-25T16:41:31.475Z,100471.53
2019-04-25T16:44:04.413Z,100466.22
2019-04-25T16:46:34.204Z,100470.28
2019-04-25T16:49:02.921Z,100465.97
2019-04-25T16:51:31.635Z,100470.72
2019-04-25T16:54:03.013Z,100477.55
2019-04-25T16:56:32.460Z,100471.45
2019-04-25T16:59:01.728Z,100471.74
2019-04-25T17:01:30.432Z,100475.14
2019-04-25T17:03:59.254Z,100472.64
2019-04-25T17:06:29.973Z,100473.72
2019-04-25T17:08:58.724Z,100468.41
2019-04-25T17:11:27.347Z,100471.77
2019-04-25T17:14:01.999Z,100472.28
2019-04-25T17:16:44.329Z,100468.05
2019-04-25T17:19:14.986Z,100473.57
2019-04-25T17:21:44.416Z,100470.03
2019-04-25T17:24:13.039Z,100470.63
2019-04-25T17:26:42.228Z,100471.00
2019-04-25T17:29:12.915Z,100469.44
2019-04-25T17:31:58.323Z,100468.89
2019-04-25T17:34:28.674Z,100469.48
2019-04-25T17:36:59.031Z,100466.48
2019-04-25T17:39:44.644Z,100467.48
2019-04-25T17:42:13.359Z,100467.97
2019-04-25T17:44:42.584Z,100465.51
2019-04-25T17:47:11.298Z,100464.55
2019-04-25T17:49:39.929Z,100464.27
2019-04-25T17:52:08.924Z,100467.86
2019-04-25T17:54:37.536Z,100472.16
2019-04-25T17:57:06.757Z,100465.69
2019-04-25T17:59:35.473Z,100466.58
2019-04-25T18:02:04.599Z,100471.38
2019-04-25T18:04:34.056Z,100464.77
2019-04-25T18:07:03.457Z,100464.50
2019-04-25T18:09:32.378Z,100461.05
2019-04-25T18:12:01.104Z,100463.20
2019-04-25T18:14:29.821Z,100463.08
2019-04-25T18:16:58.755Z,100467.95
2019-04-25T18:19:29.005Z,100473.88
2019-04-25T18:21:59.282Z,100472.62
2019-04-25T18:24:41.380Z,100461.41
2019-04-25T18:27:18.085Z,100460.92
2019-04-25T18:29:49.311Z,100464.55
2019-04-25T18:32:17.867Z,100467.41
2019-04-25T18:34:48.231Z,100464.09
2019-04-25T18:37:31.085Z,100467.46
2019-04-25T18:40:01.343Z,100457.81
2019-04-25T18:42:49.846Z,100466.78
2019-04-25T18:45:23.350Z,100469.12
2019-04-25T18:47:51.968Z,100469.98
2019-04-25T18:50:22.279Z,100467.02
2019-04-25T18:53:01.491Z,100467.39
2019-04-25T18:55:31.749Z,100469.43
2019-04-25T18:58:18.190Z,100468.74
2019-04-25T19:01:03.306Z,100473.19
2019-04-25T19:03:51.704Z,100470.31
2019-04-25T19:06:21.934Z,100471.30
2019-04-25T19:08:52.514Z,100474.30
2019-04-25T19:11:20.919Z,100474.90
2019-04-25T19:13:49.541Z,100473.20
2019-04-25T19:16:18.247Z,100473.56
2019-04-25T19:18:48.008Z,100467.55
2019-04-25T19:21:16.699Z,100465.89
2019-04-25T19:23:46.091Z,100465.98
2019-04-25T19:26:14.858Z,100465.73
2019-04-25T19:28:43.470Z,100460.81
2019-04-25T19:31:12.115Z,100462.44
2019-04-25T19:33:41.635Z,100464.09
2019-04-25T19:36:10.768Z,100464.44
2019-04-25T19:38:39.561Z,100459.03
2019-04-25T19:41:10.957Z,100472.31
2019-04-25T19:43:42.190Z,100473.56
2019-04-25T19:46:10.875Z,100472.94
2019-04-25T19:48:41.227Z,100471.25
2019-04-25T19:51:09.867Z,100474.58
2019-04-25T19:53:38.844Z,100469.19
2019-04-25T19:56:07.472Z,100472.05
2019-04-25T19:58:36.208Z,100468.30
2019-04-25T20:01:05.255Z,100467.57
2019-04-25T20:03:49.187Z,100466.89
2019-04-25T20:06:13.565Z,100468.78
2019-04-25T20:08:44.833Z,100465.74
2019-04-25T20:11:33.598Z,100468.41
2019-04-25T20:14:02.449Z,100467.69
2019-04-25T20:16:33.082Z,100471.52
2019-04-25T20:19:01.780Z,100467.02
2019-04-25T20:21:30.413Z,100461.89
2019-04-25T20:24:01.018Z,100458.12
2019-04-25T20:26:29.612Z,100453.89
2019-04-25T20:28:58.233Z,100456.00
2019-04-25T20:31:29.613Z,100454.54
2019-04-25T20:34:05.242Z,100453.28
2019-04-25T20:36:28.933Z,100451.89
2019-04-25T20:38:57.587Z,100452.77
2019-04-25T20:41:26.747Z,100447.59
2019-04-25T20:43:58.274Z,100450.34
2019-04-25T20:46:30.111Z,100445.45
2019-04-25T20:48:59.088Z,100448.64
2019-04-25T20:51:27.702Z,100446.13
2019-04-25T20:53:57.089Z,100449.43
2019-04-25T20:56:27.315Z,100449.35
2019-04-25T20:58:57.675Z,100446.73
2019-04-25T21:01:26.402Z,100443.78
2019-04-25T21:03:56.228Z,100442.22
2019-04-25T21:06:29.892Z,100435.73
2019-04-25T21:08:58.498Z,100438.67
2019-04-25T21:11:27.520Z,100434.06
2019-04-25T21:14:03.323Z,100440.43
2019-04-25T21:16:43.210Z,100438.45
2019-04-25T21:19:19.711Z,100436.76
2019-04-25T21:21:48.352Z,100434.31
2019-04-25T21:24:16.978Z,100438.77
2019-04-25T21:26:46.637Z,100430.80
2019-04-25T21:29:15.584Z,100433.58
2019-04-25T21:31:44.195Z,100423.90
2019-04-25T21:34:25.177Z,100423.06
2019-04-25T21:36:43.270Z,100421.92
2019-04-25T21:39:14.129Z,100418.45
2019-04-25T21:41:47.759Z,100425.94
2019-04-25T21:44:17.731Z,100420.47
2019-04-25T21:46:46.512Z,100412.23
2019-04-25T21:49:15.430Z,100412.15
2019-04-25T21:51:44.038Z,100411.81
2019-04-25T21:54:13.055Z,100408.77
2019-04-25T21:56:41.873Z,100407.83
2019-04-25T21:59:10.791Z,100406.43
2019-04-25T22:01:41.348Z,100398.64
2019-04-25T22:04:09.964Z,100400.91
2019-04-25T22:06:38.771Z,100401.02
2019-04-25T22:09:11.268Z,100406.73
2019-04-25T22:11:39.993Z,100404.98
2019-04-25T22:14:09.614Z,100405.11
2019-04-25T22:16:38.776Z,100401.09
2019-04-25T22:19:07.855Z,100401.84
2019-04-25T22:21:38.205Z,100397.48
2019-04-25T22:24:13.723Z,100395.64
2019-04-25T22:26:38.113Z,100397.75
2019-04-25T22:29:07.551Z,100402.14
2019-04-25T22:31:53.269Z,100404.58
2019-04-25T22:34:26.814Z,100401.89
2019-04-25T22:36:58.618Z,100396.65
2019-04-25T22:39:27.328Z,100398.34
2019-04-25T22:41:59.541Z,100398.56
2019-04-25T22:44:29.175Z,100397.44
2019-04-25T22:46:58.091Z,100391.59
2019-04-25T22:49:28.344Z,100392.84
2019-04-25T22:52:00.585Z,100389.38
2019-04-25T22:54:30.787Z,100387.02
2019-04-25T22:57:00.074Z,100393.14
2019-04-25T22:59:30.469Z,100388.38
2019-04-25T23:02:02.420Z,100386.30
2019-04-25T23:04:33.218Z,100388.56
2019-04-25T23:07:02.548Z,100386.52
2019-04-25T23:09:32.994Z,100390.64
2019-04-25T23:12:02.061Z,100385.67
2019-04-25T23:14:31.442Z,100389.36
2019-04-25T23:17:00.050Z,100376.66
2019-04-25T23:19:28.657Z,100377.80
2019-04-25T23:21:58.401Z,100378.70
2019-04-25T23:24:28.584Z,100374.77
2019-04-25T23:27:08.011Z,100372.55
2019-04-25T23:29:36.627Z,100368.26
2019-04-25T23:32:06.736Z,100368.19
2019-04-25T23:34:35.307Z,100367.24
2019-04-25T23:37:04.711Z,100368.19
2019-04-25T23:39:34.204Z,100367.61
2019-04-25T23:42:02.785Z,100368.63
2019-04-25T23:44:31.394Z,100369.21
2019-04-25T23:47:00.514Z,100362.52
2019-04-25T23:49:29.533Z,100361.20
2019-04-25T23:51:58.454Z,100360.19
2019-04-25T23:54:27.162Z,100362.59
2019-04-25T23:56:58.851Z,100360.73
2019-04-25T23:59:27.560Z,100353.34
